Time;durP1;ratioP1;P1;durP2;ratioP2;P2;SDS_P1;SDS_P2;PMS_P1;PMS_P2;Temp;Humidity;BMP_temperature;BMP_pressure;BME280_temperature;BME280_humidity;BME280_pressure;Samples;Min_cycle;Max_cycle;Signal;HPM_P1;HPM_P2
2022/06/28 00:03:36;;;;;;;8.13;3.50;;;;;;;13.37;100.00;101129.25;8387357;28;20127;-64
2022/06/28 00:07:37;;;;;;;9.13;3.27;;;;;;;13.37;100.00;101129.25;8363498;28;20114;-64
2022/06/28 00:11:38;;;;;;;10.10;3.70;;;;;;;13.27;100.00;101117.56;8363120;28;20268;-64
2022/06/28 00:16:14;;;;;;;9.40;3.70;;;;;;;13.22;100.00;101114.41;8363098;28;20040;-64
2022/06/28 00:19:59;;;;;;;8.40;3.45;;;;;;;13.23;100.00;101113.38;8388857;28;20378;-64
2022/06/28 00:23:59;;;;;;;10.70;3.47;;;;;;;13.28;100.00;101108.38;8393938;28;20046;-64
2022/06/28 00:27:59;;;;;;;6.00;3.00;;;;;;;13.38;100.00;101110.09;8390045;28;20057;-64
2022/06/28 00:32:00;;;;;;;17.33;4.13;;;;;;;13.27;100.00;101112.13;8388664;28;20036;-64
2022/06/28 00:36:00;;;;;;;6.45;3.38;;;;;;;13.22;100.00;101106.25;8392660;28;20482;-64
2022/06/28 00:40:01;;;;;;;7.37;3.33;;;;;;;13.15;100.00;101113.25;8394182;28;20040;-64
2022/06/28 00:44:02;;;;;;;12.65;3.42;;;;;;;13.14;100.00;101106.09;8390646;28;20277;-64
2022/06/28 00:48:04;;;;;;;7.63;3.28;;;;;;;13.12;100.00;101116.25;8393605;28;20036;-64
2022/06/28 00:52:04;;;;;;;7.50;3.80;;;;;;;13.15;100.00;101113.25;8376954;28;20040;-64
2022/06/28 00:56:05;;;;;;;6.50;3.40;;;;;;;13.20;100.00;101116.38;8346353;28;20119;-64
2022/06/28 01:00:06;;;;;;;9.45;3.33;;;;;;;13.23;100.00;101113.38;8358949;28;20044;-64
2022/06/28 01:04:07;;;;;;;4.72;3.55;;;;;;;13.21;100.00;101115.41;8376460;28;20033;-64
2022/06/28 01:08:08;;;;;;;5.22;3.03;;;;;;;13.14;100.00;101116.94;8375686;28;20063;-64
2022/06/28 01:12:08;;;;;;;5.38;3.40;;;;;;;13.03;100.00;101114.41;8376269;28;20037;-64
2022/06/28 01:16:08;;;;;;;5.68;3.42;;;;;;;12.77;100.00;101119.47;8376448;28;20035;-64
2022/06/28 01:20:09;;;;;;;10.70;3.25;;;;;;;12.85;100.00;101118.75;8372624;28;20037;-64
2022/06/28 01:24:10;;;;;;;10.57;3.38;;;;;;;12.82;100.00;101110.91;8367415;28;20047;-64
2022/06/28 01:28:11;;;;;;;5.90;3.55;;;;;;;12.82;100.00;101122.63;8361419;28;20033;-64
2022/06/28 01:32:14;;;;;;;10.27;3.95;;;;;;;12.78;100.00;101125.75;8355592;28;20033;-64
2022/06/28 01:36:14;;;;;;;12.93;3.60;;;;;;;12.56;100.00;101131.41;8360091;28;20116;-64
2022/06/28 01:40:15;;;;;;;12.73;4.00;;;;;;;12.53;100.00;101127.09;8357597;28;20053;-64
2022/06/28 01:44:16;;;;;;;10.60;3.65;;;;;;;12.56;100.00;101132.25;8347267;28;20451;-64
2022/06/28 01:48:18;;;;;;;12.57;4.20;;;;;;;12.57;100.00;101138.56;8344174;28;20447;-64
2022/06/28 01:52:18;;;;;;;16.23;5.82;;;;;;;12.54;100.00;101144.25;8345146;28;20072;-64
2022/06/28 01:56:19;;;;;;;9.50;4.63;;;;;;;12.54;100.00;101144.25;8325851;28;20088;-64
2022/06/28 02:00:19;;;;;;;15.85;4.78;;;;;;;12.59;100.00;101150.13;8346136;28;20078;-64
2022/06/28 02:04:25;;;;;;;15.38;4.90;;;;;;;12.55;100.00;101157.69;8374720;28;20033;-64
2022/06/28 02:08:26;;;;;;;13.50;5.05;;;;;;;12.51;100.00;101158.09;8374896;28;20457;-64
2022/06/28 02:12:28;;;;;;;17.40;5.10;;;;;;;12.48;100.00;101152.94;8374899;28;20047;-64
2022/06/28 02:16:29;;;;;;;8.98;4.95;;;;;;;12.50;100.00;101161.81;8374649;28;20400;-64
2022/06/28 02:20:29;;;;;;;9.52;4.15;;;;;;;12.48;100.00;101171.91;8356937;28;20056;-64
2022/06/28 02:24:31;;;;;;;17.95;4.97;;;;;;;12.52;100.00;101165.22;8357556;28;20044;-64
2022/06/28 02:28:31;;;;;;;17.92;5.15;;;;;;;12.50;100.00;101164.50;8356680;28;20505;-64
2022/06/28 02:32:32;;;;;;;8.40;4.30;;;;;;;12.44;100.00;101175.91;8371704;28;20514;-64
2022/06/28 02:40:52;;;;;;;11.02;3.90;;;;;;;12.24;100.00;101190.34;8327328;28;20136;-64
2022/06/28 02:44:53;;;;;;;10.93;5.07;;;;;;;12.22;100.00;101189.63;8326722;28;20059;-64
2022/06/28 02:48:53;;;;;;;16.23;5.00;;;;;;;12.15;100.00;101191.16;8325930;28;20124;-64
2022/06/28 02:52:54;;;;;;;13.65;4.90;;;;;;;12.03;100.00;101192.22;8325300;28;20046;-64
2022/06/28 02:56:54;;;;;;;17.88;4.82;;;;;;;12.11;100.00;101195.16;8325517;28;20199;-64
2022/06/28 03:00:55;;;;;;;15.10;4.55;;;;;;;11.97;100.00;101209.03;8351356;28;20033;-64
2022/06/28 03:04:55;;;;;;;16.25;4.55;;;;;;;12.27;100.00;101215.34;8372855;28;20036;-64
2022/06/28 03:08:55;;;;;;;15.70;4.75;;;;;;;12.05;100.00;101206.50;8373279;28;20436;-64
2022/06/28 03:12:56;;;;;;;17.77;4.95;;;;;;;12.03;100.00;101208.50;8373234;28;20037;-64
2022/06/28 03:16:56;;;;;;;16.60;4.60;;;;;;;12.00;100.00;101214.19;8373280;28;20532;-64
2022/06/28 03:20:57;;;;;;;13.70;5.33;;;;;;;12.02;100.00;101214.91;8373672;28;20097;-64
2022/06/28 03:24:57;;;;;;;13.90;4.63;;;;;;;12.00;100.00;101209.63;8356832;28;20280;-64
2022/06/28 03:28:57;;;;;;;9.95;4.60;;;;;;;12.01;100.00;101216.75;8354244;28;20389;-64
2022/06/28 03:32:58;;;;;;;11.70;4.35;;;;;;;12.04;100.00;101204.81;8373366;28;20036;-64
2022/06/28 03:36:58;;;;;;;11.77;3.80;;;;;;;12.04;100.00;101226.50;8371957;28;20510;-64
2022/06/28 03:40:59;;;;;;;12.27;4.38;;;;;;;12.07;100.00;101231.66;8372343;28;20112;-64
2022/06/28 03:44:59;;;;;;;9.95;4.40;;;;;;;12.19;100.00;101230.56;8372678;28;20122;-64
2022/06/28 03:48:59;;;;;;;15.88;4.50;;;;;;;12.27;100.00;101236.19;8372460;28;20090;-64
2022/06/28 03:53:00;;;;;;;7.85;3.45;;;;;;;12.41;100.00;101238.56;8365628;28;20537;-64
2022/06/28 03:57:00;;;;;;;12.82;4.00;;;;;;;12.40;100.00;101240.41;8356174;28;20025;-64
2022/06/28 04:01:01;;;;;;;8.27;3.70;;;;;;;12.36;100.00;101235.38;8372879;28;20032;-64
2022/06/28 04:05:01;;;;;;;15.90;4.27;;;;;;;12.44;100.00;101241.00;8368833;28;20421;-64
2022/06/28 04:09:02;;;;;;;10.57;3.88;;;;;;;12.86;100.00;101246.16;8371066;28;20302;-64
2022/06/28 04:13:02;;;;;;;13.27;3.80;;;;;;;12.85;100.00;101251.72;8368767;28;20531;-64
2022/06/28 04:17:03;;;;;;;14.85;4.45;;;;;;;13.09;100.00;101246.84;8356042;28;20040;-64
2022/06/28 04:21:03;;;;;;;11.20;3.85;;;;;;;13.13;100.00;101243.72;8348059;28;20125;-64
2022/06/28 04:25:04;;;;;;;11.00;3.97;;;;;;;13.43;100.00;101253.63;8341039;28;20032;-64
2022/06/28 04:29:04;;;;;;;12.48;3.25;;;;;;;13.22;100.00;101252.88;8370482;28;20029;-64
2022/06/28 04:33:05;;;;;;;16.33;4.28;;;;;;;13.19;100.00;101255.88;8357537;28;20044;-64
2022/06/28 04:37:05;;;;;;;12.82;3.80;;;;;;;13.46;100.00;101242.50;8358299;28;20086;-64
2022/06/28 04:41:05;;;;;;;13.43;3.40;;;;;;;13.66;100.00;101250.50;8356574;28;20041;-64
2022/06/28 04:45:06;;;;;;;14.90;3.40;;;;;;;14.15;100.00;101243.19;8356082;28;20679;-64
2022/06/28 04:49:07;;;;;;;10.52;3.15;;;;;;;14.57;100.00;101253.56;8357227;28;20044;-64
2022/06/28 04:53:08;;;;;;;7.30;3.00;;;;;;;14.94;100.00;101240.78;8356784;28;20036;-64
2022/06/28 04:57:08;;;;;;;13.30;3.00;;;;;;;14.81;100.00;101245.72;8357782;28;20029;-64
2022/06/28 05:01:09;;;;;;;16.52;2.80;;;;;;;14.81;100.00;101234.84;8365712;28;20358;-64
2022/06/28 05:05:10;;;;;;;18.23;3.33;;;;;;;14.93;100.00;101243.66;8343373;28;20125;-64
2022/06/28 05:09:10;;;;;;;20.38;3.45;;;;;;;15.28;100.00;101239.16;8341407;28;20035;-64
2022/06/28 05:13:11;;;;;;;9.10;2.83;;;;;;;15.42;100.00;101246.84;8343455;28;20062;-64
2022/06/28 05:17:11;;;;;;;10.43;2.90;;;;;;;15.54;100.00;101245.63;8382235;28;20041;-64
2022/06/28 05:21:12;;;;;;;7.25;2.65;;;;;;;15.62;100.00;101247.56;8348886;28;20037;-64
2022/06/28 05:25:12;;;;;;;12.45;3.00;;;;;;;15.73;100.00;101245.47;8341390;28;20127;-64
2022/06/28 05:29:12;;;;;;;8.05;2.30;;;;;;;15.84;100.00;101252.56;8344812;28;20131;-64
2022/06/28 05:33:13;;;;;;;10.85;2.88;;;;;;;15.96;100.00;101244.97;8346447;28;20497;-64
2022/06/28 05:37:13;;;;;;;13.75;2.30;;;;;;;16.09;100.00;101245.44;8370180;28;20479;-64
2022/06/28 05:41:14;;;;;;;9.57;2.35;;;;;;;15.84;100.00;101246.22;8347643;28;20049;-64
2022/06/28 05:45:14;;;;;;;9.82;2.50;;;;;;;16.14;100.00;101245.81;8360410;28;20041;-64
2022/06/28 05:49:15;;;;;;;9.50;2.42;;;;;;;16.49;100.00;101243.03;8359546;28;20528;-64
2022/06/28 05:53:15;;;;;;;10.20;3.00;;;;;;;16.63;100.00;101240.56;8355381;28;20044;-64
2022/06/28 05:57:15;;;;;;;16.13;3.30;;;;;;;16.43;100.00;101238.16;8363817;28;20033;-64
2022/06/28 06:01:16;;;;;;;11.65;2.72;;;;;;;16.87;100.00;101231.66;8364139;28;20037;-64
2022/06/28 06:05:17;;;;;;;8.57;2.20;;;;;;;17.19;98.66;101248.16;8363466;28;20045;-64
2022/06/28 06:09:17;;;;;;;14.40;2.00;;;;;;;17.40;97.07;101243.13;8356369;28;20057;-64
2022/06/28 06:13:18;;;;;;;7.03;1.98;;;;;;;17.57;96.09;101253.94;8362695;28;20101;-64
2022/06/28 06:17:18;;;;;;;7.67;1.90;;;;;;;17.98;95.78;101252.13;8363990;28;20036;-64
2022/06/28 06:21:19;;;;;;;7.38;1.75;;;;;;;18.13;94.13;101244.94;8354285;28;20283;-64
2022/06/28 06:25:20;;;;;;;10.48;2.05;;;;;;;18.27;91.56;101244.25;8351464;28;20038;-64
2022/06/28 06:29:20;;;;;;;14.65;2.30;;;;;;;18.44;88.15;101251.47;8369094;28;20037;-64
2022/06/28 06:33:20;;;;;;;5.93;1.40;;;;;;;18.99;86.98;101260.56;8360428;28;20040;-64
2022/06/28 06:37:21;;;;;;;7.68;1.52;;;;;;;19.32;83.59;101262.19;8350787;28;20040;-64
2022/06/28 06:41:21;;;;;;;7.13;1.15;;;;;;;19.67;85.00;101259.94;8345332;28;20137;-64
2022/06/28 06:45:22;;;;;;;4.78;1.08;;;;;;;19.48;78.99;101262.09;8371290;28;20127;-64
2022/06/28 06:49:23;;;;;;;4.88;0.80;;;;;;;19.65;76.08;101262.00;8368911;28;20037;-64
2022/06/28 06:53:24;;;;;;;4.80;0.98;;;;;;;19.71;74.27;101264.00;8348445;28;20044;-64
2022/06/28 06:57:24;;;;;;;5.10;1.10;;;;;;;20.05;72.48;101262.56;8353986;28;20045;-64
2022/06/28 07:01:28;;;;;;;6.20;1.50;;;;;;;20.18;75.57;101265.56;8357471;28;20532;-64
2022/06/28 07:05:30;;;;;;;5.55;1.00;;;;;;;20.43;74.72;101247.00;8359811;28;20283;-64
2022/06/28 07:09:30;;;;;;;3.75;0.95;;;;;;;20.66;71.21;101256.88;8362777;28;20035;-64
2022/06/28 07:13:30;;;;;;;2.53;0.90;;;;;;;20.72;73.27;101258.88;8362878;28;20053;-64
2022/06/28 07:17:31;;;;;;;2.83;0.87;;;;;;;20.90;71.43;101250.25;8363763;28;20117;-64
2022/06/28 07:21:31;;;;;;;4.20;1.30;;;;;;;21.01;71.75;101255.28;8345237;28;20814;-64
2022/06/28 07:25:31;;;;;;;4.88;1.10;;;;;;;20.85;71.89;101247.22;8321132;28;20269;-64
2022/06/28 07:29:32;;;;;;;7.85;1.05;;;;;;;20.77;72.10;101256.41;8339759;28;20418;-64
2022/06/28 07:33:32;;;;;;;2.80;0.90;;;;;;;20.59;72.10;101252.31;8338022;28;20060;-64
2022/06/28 07:37:33;;;;;;;7.55;1.20;;;;;;;21.03;70.94;101251.34;8339570;28;20064;-64
2022/06/28 07:41:33;;;;;;;5.50;0.90;;;;;;;21.14;68.87;101250.84;8353029;28;20400;-64
2022/06/28 07:45:36;;;;;;;6.25;1.13;;;;;;;20.89;70.36;101256.81;8351603;28;20420;-64
2022/06/28 07:53:58;;;;;;;5.35;1.00;;;;;;;21.68;70.15;101248.53;8369467;28;20040;-64
2022/06/28 07:57:59;;;;;;;3.97;0.88;;;;;;;21.84;67.19;101248.34;8342336;28;20064;-64
2022/06/28 08:02:00;;;;;;;4.60;0.85;;;;;;;21.79;66.38;101250.84;8374837;28;20071;-64
2022/06/28 08:06:01;;;;;;;4.05;0.75;;;;;;;21.78;66.87;101240.88;8346105;28;20050;-64
2022/06/28 08:10:03;;;;;;;3.95;0.70;;;;;;;21.48;65.25;101230.97;8343863;28;20092;-64
2022/06/28 08:14:04;;;;;;;3.75;0.85;;;;;;;21.90;65.60;101228.28;8357617;28;20044;-64
2022/06/28 08:18:05;;;;;;;3.67;0.60;;;;;;;21.75;64.80;101229.41;8353865;28;20040;-64
2022/06/28 08:22:11;;;;;;;6.15;0.82;;;;;;;21.68;64.11;101226.53;8349095;28;20147;-64
2022/06/28 08:26:13;;;;;;;4.65;0.50;;;;;;;22.40;63.71;101225.34;8352678;28;20033;-64
2022/06/28 08:30:14;;;;;;;3.63;0.52;;;;;;;22.47;64.71;101229.00;8333438;28;20108;-64
2022/06/28 08:34:15;;;;;;;7.22;0.85;;;;;;;22.26;66.23;101218.00;8328425;28;20164;-64
2022/06/28 08:38:15;;;;;;;4.25;1.33;;;;;;;22.27;68.81;101214.22;8323855;28;20064;-64
2022/06/28 08:42:24;;;;;;;5.70;1.42;;;;;;;22.48;65.20;101222.44;8325843;28;20036;-64
2022/06/28 08:46:25;;;;;;;5.30;0.65;;;;;;;22.34;64.42;101220.63;8331614;28;20033;-64
2022/06/28 08:50:35;;;;;;;3.42;0.68;;;;;;;22.45;65.31;101216.47;8362641;28;20072;-64
2022/06/28 08:54:36;;;;;;;2.05;0.82;;;;;;;22.46;66.18;101213.53;8353640;28;20044;-65
2022/06/28 08:58:42;;;;;;;2.03;0.60;;;;;;;22.81;63.38;101207.00;8358066;28;20049;-65
2022/06/28 09:02:43;;;;;;;3.22;0.68;;;;;;;22.25;61.22;101205.31;8352109;28;20051;-64
2022/06/28 09:06:44;;;;;;;3.80;0.60;;;;;;;22.15;62.25;101191.03;8349969;28;20037;-64
2022/06/28 09:10:44;;;;;;;5.68;1.10;;;;;;;22.24;62.51;101198.09;8324112;28;20044;-64
2022/06/28 09:14:44;;;;;;;8.00;0.70;;;;;;;22.48;63.60;101183.84;8326036;28;20413;-64
2022/06/28 09:18:47;;;;;;;4.18;0.80;;;;;;;22.59;64.49;101180.56;8346444;28;20044;-64
2022/06/28 09:22:48;;;;;;;6.82;1.23;;;;;;;22.65;66.92;101174.25;8337292;28;20139;-64
2022/06/28 09:26:52;;;;;;;3.33;0.70;;;;;;;23.16;62.08;101177.47;8338562;28;20041;-64
2022/06/28 09:31:18;;;;;;;3.05;0.63;;;;;;;23.50;59.59;101179.31;8348626;28;20616;-64
2022/06/28 09:35:19;;;;;;;7.25;0.65;;;;;;;23.27;59.90;101176.94;8332339;28;20086;-64
2022/06/28 09:39:19;;;;;;;3.00;0.43;;;;;;;23.00;56.75;101173.16;8342970;28;20048;-63
2022/06/28 09:43:20;;;;;;;3.03;0.47;;;;;;;22.92;57.79;101173.34;8342718;28;20509;-62
2022/06/28 09:47:21;;;;;;;2.03;0.50;;;;;;;23.26;60.50;101160.56;8345571;28;20391;-62
2022/06/28 09:51:23;;;;;;;3.08;1.08;;;;;;;22.99;57.86;101160.44;8337443;28;20037;-62
2022/06/28 09:55:27;;;;;;;3.47;0.70;;;;;;;23.32;57.23;101144.03;8350579;28;20397;-62
2022/06/28 09:59:28;;;;;;;;;;;;;;;24.32;56.70;101136.47;8356529;28;20043;-63
2022/06/28 10:03:29;;;;;;;2.40;0.68;;;;;;;24.89;54.46;101133.81;8355973;28;19920;-62
2022/06/28 10:07:30;;;;;;;2.78;0.52;;;;;;;25.54;54.26;101114.13;8371044;28;20040;-62
2022/06/28 10:15:01;;;;;;;6.00;0.60;;;;;;;26.26;51.44;101119.94;8371220;28;20041;-62
2022/06/28 10:16:04;;;;;;;3.20;0.70;;;;;;;28.30;51.49;101109.44;8346487;28;20294;-62
2022/06/28 10:20:07;;;;;;;3.55;0.60;;;;;;;29.96;46.86;101107.38;8323537;28;20072;-62
2022/06/28 10:24:08;;;;;;;5.83;0.90;;;;;;;30.00;46.02;101098.25;8349688;28;20528;-61
2022/06/28 10:28:26;;;;;;;2.65;0.63;;;;;;;29.72;44.42;101111.41;8341284;28;20407;-61
2022/06/28 10:32:46;;;;;;;2.45;0.60;;;;;;;29.66;46.87;101102.13;8366732;28;20132;-61
2022/06/28 10:36:50;;;;;;;1.48;0.80;;;;;;;29.57;43.60;101089.66;8342128;28;20140;-61
2022/06/28 10:40:50;;;;;;;4.50;0.73;;;;;;;30.31;45.04;101074.53;8330118;28;20124;-62
2022/06/28 10:44:50;;;;;;;2.30;0.70;;;;;;;30.03;45.29;101080.16;8352541;28;20072;-62
2022/06/28 10:53:08;;;;;;;2.47;0.60;;;;;;;29.95;45.69;101083.41;8423915;27;20420;-62
2022/06/28 10:57:36;;;;;;;1.58;0.50;;;;;;;30.48;43.61;101082.84;8446129;27;20032;-62
2022/06/28 11:05:58;;;;;;;1.58;0.77;;;;;;;30.67;41.94;101076.69;8289140;28;20541;-62
2022/06/28 11:14:29;;;;;;;6.90;0.80;;;;;;;30.49;42.69;101056.63;8324752;27;20833;-62
2022/06/28 11:18:30;;;;;;;1.90;0.63;;;;;;;28.74;42.43;101057.88;8317922;28;20824;-62
2022/06/28 11:22:35;;;;;;;5.15;0.70;;;;;;;30.62;44.51;101057.09;8316655;28;20042;-62
2022/06/28 11:27:36;;;;;;;2.05;0.90;;;;;;;32.53;42.79;101033.84;8317451;28;20124;-62
2022/06/28 11:30:56;;;;;;;4.30;0.90;;;;;;;31.73;40.87;101039.66;8315852;28;20600;-62
2022/06/28 11:35:04;;;;;;;3.30;0.90;;;;;;;29.99;42.12;101029.63;8317130;28;20037;-62
2022/06/28 11:39:23;;;;;;;1.90;0.57;;;;;;;30.50;42.60;101035.97;8317123;28;20037;-62
2022/06/28 11:43:25;;;;;;;2.85;0.82;;;;;;;30.91;41.24;101035.41;8316272;28;20579;-62
2022/06/28 11:47:26;;;;;;;4.50;0.70;;;;;;;31.22;42.31;101023.50;8307330;28;20061;-62
2022/06/28 11:51:31;;;;;;;2.78;0.70;;;;;;;31.01;41.04;101032.75;8308205;28;20045;-62
2022/06/28 11:59:59;;;;;;;2.47;0.70;;;;;;;31.15;41.73;101018.13;8344327;27;20859;-62
2022/06/28 12:04:00;;;;;;;4.15;0.60;;;;;;;30.33;41.95;101011.75;8320587;28;20498;-62
2022/06/28 12:08:02;;;;;;;3.30;0.52;;;;;;;30.25;42.51;101001.03;8318335;28;20405;-62
2022/06/28 12:12:03;;;;;;;3.72;0.80;;;;;;;30.12;42.18;100994.94;8317872;28;20092;-62
2022/06/28 12:16:12;;;;;;;3.67;0.88;;;;;;;28.15;44.90;100991.44;8318315;28;20037;-62
2022/06/28 12:20:13;;;;;;;3.95;1.10;;;;;;;26.99;47.68;100973.75;8316929;28;20128;-61
2022/06/28 12:24:14;;;;;;;2.13;0.60;;;;;;;25.78;49.19;100983.09;8343852;28;20037;-61
2022/06/28 12:28:14;;;;;;;2.45;0.70;;;;;;;25.33;49.59;100975.16;8346167;28;20033;-62
2022/06/28 12:32:16;;;;;;;3.78;0.70;;;;;;;25.59;49.88;100973.06;8344974;28;20041;-62
2022/06/28 12:36:16;;;;;;;2.75;0.65;;;;;;;26.06;49.76;100983.47;8346952;28;20030;-62
2022/06/28 12:40:17;;;;;;;2.97;0.65;;;;;;;26.03;49.82;100975.59;8344783;28;20490;-62
2022/06/28 12:44:19;;;;;;;3.97;0.70;;;;;;;25.89;51.83;100982.31;8327252;28;20045;-62
2022/06/28 12:48:20;;;;;;;2.22;0.50;;;;;;;25.42;51.10;100960.84;8344425;28;20065;-62
2022/06/28 12:52:21;;;;;;;1.38;0.60;;;;;;;25.57;51.93;100966.88;8345648;28;20044;-62
2022/06/28 12:56:21;;;;;;;3.60;0.80;;;;;;;25.25;51.01;100959.66;8344302;28;20029;-62
2022/06/28 13:00:21;;;;;;;1.33;0.60;;;;;;;25.19;51.47;100966.13;8344950;28;20280;-62
2022/06/28 13:04:22;;;;;;;4.32;0.60;;;;;;;25.34;53.54;100958.34;8344459;28;20481;-62
2022/06/28 13:08:22;;;;;;;2.17;0.53;;;;;;;25.75;50.98;100952.22;8337336;28;20518;-62
2022/06/28 13:12:23;;;;;;;2.00;0.55;;;;;;;25.26;49.86;100950.31;8308498;28;20332;-62
2022/06/28 13:16:26;;;;;;;3.90;0.60;;;;;;;25.54;51.17;100947.94;8321690;28;20136;-62
2022/06/28 13:20:26;;;;;;;2.33;0.82;;;;;;;25.38;51.59;100940.22;8307441;28;20061;-62
2022/06/28 13:24:26;;;;;;;4.47;1.20;;;;;;;25.42;50.00;100929.53;8287009;28;20042;-62
2022/06/28 13:28:27;;;;;;;3.63;0.80;;;;;;;25.72;50.23;100925.81;8309253;28;20353;-62
2022/06/28 13:32:27;;;;;;;2.72;1.10;;;;;;;25.48;51.55;100918.38;8295097;28;20502;-62
2022/06/28 13:36:28;;;;;;;1.30;0.90;;;;;;;25.10;51.93;100917.66;8290362;28;20447;-62
2022/06/28 13:40:28;;;;;;;2.90;0.90;;;;;;;25.16;51.74;100908.44;8281302;28;20045;-62
2022/06/28 13:44:29;;;;;;;2.47;0.63;;;;;;;25.35;52.71;100907.44;8289441;28;20115;-62
2022/06/28 13:48:30;;;;;;;2.30;0.53;;;;;;;25.26;52.43;100906.00;8281371;28;20517;-62
2022/06/28 13:52:31;;;;;;;3.40;0.82;;;;;;;25.29;52.92;100891.72;8281157;28;20061;-62
2022/06/28 13:56:32;;;;;;;7.00;0.90;;;;;;;25.61;53.59;100901.63;8276846;28;20100;-62
2022/06/28 14:00:33;;;;;;;3.97;1.95;;;;;;;25.12;53.33;100879.50;8280252;28;20498;-62
2022/06/28 14:04:33;;;;;;;2.78;1.30;;;;;;;25.43;53.34;100882.22;8291906;28;20410;-62
2022/06/28 14:08:34;;;;;;;1.85;0.82;;;;;;;25.28;52.53;100883.63;8314249;28;20607;-62
2022/06/28 14:12:34;;;;;;;4.60;0.90;;;;;;;25.37;53.02;100877.59;8320762;28;20045;-62
2022/06/28 14:16:34;;;;;;;1.95;0.63;;;;;;;25.23;51.40;100864.94;8321503;28;20041;-62
2022/06/28 14:20:35;;;;;;;4.03;0.80;;;;;;;25.42;51.94;100863.91;8319756;28;20518;-62
2022/06/28 14:24:35;;;;;;;4.93;0.70;;;;;;;25.42;52.67;100858.38;8316620;28;20091;-62
2022/06/28 14:28:36;;;;;;;3.33;0.97;;;;;;;25.37;51.38;100860.97;8309678;28;20124;-62
2022/06/28 14:32:36;;;;;;;2.47;0.80;;;;;;;25.18;51.86;100845.38;8314530;28;20275;-62
2022/06/28 14:36:37;;;;;;;2.85;0.90;;;;;;;25.07;51.87;100837.84;8316374;28;20714;-62
2022/06/28 14:40:37;;;;;;;1.40;0.67;;;;;;;25.36;52.93;100831.59;8320398;28;20041;-62
2022/06/28 14:44:38;;;;;;;5.32;1.02;;;;;;;25.53;53.75;100843.78;8314187;28;20298;-62
2022/06/28 14:48:38;;;;;;;1.92;0.80;;;;;;;25.54;53.31;100845.47;8321574;28;20034;-62
2022/06/28 14:52:38;;;;;;;6.23;0.80;;;;;;;25.38;52.07;100834.16;8320052;28;20049;-62
2022/06/28 14:56:39;;;;;;;2.03;0.75;;;;;;;25.34;53.16;100824.63;8321139;28;20293;-62
2022/06/28 15:00:39;;;;;;;4.13;1.08;;;;;;;25.29;51.95;100825.28;8276492;28;20395;-62
2022/06/28 15:04:40;;;;;;;5.28;0.60;;;;;;;25.52;52.63;100824.63;8281891;28;20413;-62
2022/06/28 15:08:40;;;;;;;2.08;0.80;;;;;;;25.32;51.01;100815.69;8304416;28;20036;-62
2022/06/28 15:12:41;;;;;;;2.33;0.93;;;;;;;25.50;52.28;100813.78;8310996;28;20042;-62
2022/06/28 15:16:41;;;;;;;2.10;0.82;;;;;;;25.55;51.80;100816.69;8308555;28;20034;-62
2022/06/28 15:20:42;;;;;;;4.18;1.55;;;;;;;25.86;54.18;100813.75;8291614;28;20030;-63
2022/06/28 15:33:25;;;;;;;5.88;1.55;;;;;;;25.54;51.56;100812.25;8331343;28;20057;-62
2022/06/28 15:37:26;;;;;;;1.52;0.57;;;;;;;25.62;50.39;100802.78;8321919;28;20049;-62
2022/06/28 15:41:26;;;;;;;3.23;1.00;;;;;;;25.83;52.11;100796.75;8321096;28;20156;-62
2022/06/28 15:45:26;;;;;;;1.80;0.70;;;;;;;25.80;51.15;100792.50;8322024;28;20280;-62
2022/06/28 15:49:27;;;;;;;3.07;0.70;;;;;;;25.76;51.33;100796.84;8323023;28;20056;-62
2022/06/28 15:53:27;;;;;;;5.25;1.95;;;;;;;25.46;51.78;100790.38;8321291;28;21007;-62
2022/06/28 15:57:28;;;;;;;4.03;0.75;;;;;;;25.34;52.22;100783.91;8319763;28;20641;-62
2022/06/28 16:01:28;;;;;;;3.00;1.00;;;;;;;25.51;52.45;100782.25;8317865;28;20421;-62
2022/06/28 16:05:30;;;;;;;3.30;0.90;;;;;;;25.59;51.61;100773.63;8316035;28;20071;-62
2022/06/28 16:09:30;;;;;;;1.92;0.88;;;;;;;25.63;53.16;100762.91;8315922;28;20033;-62
2022/06/28 16:13:31;;;;;;;2.55;0.88;;;;;;;25.52;51.36;100763.72;8316531;28;20046;-62
2022/06/28 16:17:31;;;;;;;3.15;0.80;;;;;;;25.60;52.06;100767.00;8308213;28;20053;-62
2022/06/28 16:21:31;;;;;;;3.20;0.52;;;;;;;25.41;51.39;100761.69;8305803;28;20042;-62
2022/06/28 16:25:32;;;;;;;3.13;0.85;;;;;;;25.36;52.20;100759.63;8313367;28;20091;-62
2022/06/28 16:29:34;;;;;;;3.90;0.70;;;;;;;25.26;51.57;100745.44;8329756;28;20064;-62
2022/06/28 16:33:34;;;;;;;2.55;1.00;;;;;;;25.30;50.92;100735.59;8309768;28;20044;-62
2022/06/28 16:37:34;;;;;;;2.20;0.60;;;;;;;25.40;52.49;100738.69;8294606;28;20489;-62
2022/06/28 16:41:35;;;;;;;1.52;0.70;;;;;;;25.41;51.18;100743.19;8296184;28;20269;-62
2022/06/28 16:45:35;;;;;;;3.15;0.80;;;;;;;25.51;50.25;100746.25;8314357;28;20406;-62
2022/06/28 16:49:36;;;;;;;3.17;0.93;;;;;;;25.38;50.98;100738.09;8310227;28;20041;-62
2022/06/28 16:53:36;;;;;;;2.27;0.80;;;;;;;25.39;51.79;100745.31;8316940;28;20269;-62
2022/06/28 16:57:38;;;;;;;3.17;1.08;;;;;;;25.46;50.88;100735.00;8310801;28;20288;-63
2022/06/28 17:01:39;;;;;;;4.80;0.98;;;;;;;25.60;52.18;100730.13;8330610;28;20095;-62
2022/06/28 17:05:39;;;;;;;3.35;1.30;;;;;;;25.62;51.84;100726.06;8313507;28;20144;-62
2022/06/28 17:09:40;;;;;;;3.20;0.88;;;;;;;25.44;51.69;100720.56;8318308;28;20128;-62
2022/06/28 17:13:40;;;;;;;6.88;2.47;;;;;;;25.43;50.89;100721.63;8317956;28;20128;-62
2022/06/28 17:17:42;;;;;;;1.88;0.90;;;;;;;25.32;51.12;100729.88;8319722;28;20075;-62
2022/06/28 17:21:43;;;;;;;2.20;1.00;;;;;;;25.29;51.49;100713.69;8301641;28;20069;-62
2022/06/28 17:25:44;;;;;;;3.97;1.50;;;;;;;25.31;53.00;100717.91;8297277;28;20041;-61
2022/06/28 17:29:44;;;;;;;2.45;0.80;;;;;;;25.28;51.00;100714.78;8306722;28;20132;-62
2022/06/28 17:33:45;;;;;;;3.13;0.90;;;;;;;25.19;51.16;100708.69;8314702;28;20060;-62
2022/06/28 17:37:45;;;;;;;6.57;1.00;;;;;;;25.16;51.37;100700.00;8301892;28;20052;-62
2022/06/28 17:41:47;;;;;;;5.70;0.70;;;;;;;25.16;51.96;100698.09;8290710;28;20034;-63
2022/06/28 17:45:48;;;;;;;1.77;1.10;;;;;;;25.17;52.48;100704.44;8291637;28;20042;-64
2022/06/28 17:49:54;;;;;;;3.17;0.88;;;;;;;25.05;52.56;100701.63;8291955;28;20056;-64
2022/06/28 17:53:56;;;;;;;2.67;1.33;;;;;;;24.98;53.29;100696.16;8284101;28;20168;-61
2022/06/28 17:57:56;;;;;;;2.70;1.10;;;;;;;24.98;52.13;100689.78;8287988;28;20362;-62
2022/06/28 18:01:57;;;;;;;5.35;1.67;;;;;;;24.97;51.84;100688.06;8279786;28;20486;-62
2022/06/28 18:05:58;;;;;;;6.88;1.77;;;;;;;24.97;51.77;100699.13;8301110;28;20406;-63
2022/06/28 18:09:58;;;;;;;2.08;1.05;;;;;;;24.93;53.02;100697.91;8270839;28;20848;-63
2022/06/28 18:13:59;;;;;;;4.25;1.48;;;;;;;24.86;53.23;100692.44;8284466;28;20129;-63
2022/06/28 18:18:03;;;;;;;3.08;1.00;;;;;;;24.81;53.33;100699.75;8287979;28;20049;-63
2022/06/28 18:22:03;;;;;;;5.22;1.35;;;;;;;24.70;53.71;100697.75;8275616;28;20053;-63
2022/06/28 18:26:04;;;;;;;1.98;1.02;;;;;;;24.64;54.59;100682.88;8309042;28;20120;-63
2022/06/28 18:30:05;;;;;;;1.88;0.70;;;;;;;24.60;54.40;100686.31;8279070;28;20046;-63
2022/06/28 18:34:05;;;;;;;2.05;0.93;;;;;;;24.50;54.77;100685.97;8269825;28;20042;-63
2022/06/28 18:38:05;;;;;;;3.80;1.03;;;;;;;24.39;55.63;100683.94;8300414;28;20092;-63
2022/06/28 18:42:06;;;;;;;1.55;0.75;;;;;;;24.30;55.89;100682.53;8275430;28;20050;-63
2022/06/28 18:46:07;;;;;;;1.42;0.80;;;;;;;24.26;55.96;100686.81;8271525;28;20042;-63
2022/06/28 18:50:08;;;;;;;2.88;0.70;;;;;;;24.15;55.88;100682.03;8278848;28;20506;-63
2022/06/28 18:54:09;;;;;;;2.15;0.80;;;;;;;24.06;56.62;100678.69;8278080;28;20048;-63
2022/06/28 18:58:09;;;;;;;3.65;0.80;;;;;;;23.95;56.83;100676.66;8278484;28;20101;-63
2022/06/28 19:02:10;;;;;;;3.92;0.93;;;;;;;23.91;56.12;100677.31;8290830;28;20117;-63
2022/06/28 19:06:10;;;;;;;1.05;0.77;;;;;;;23.83;56.50;100677.56;8280820;28;20418;-63
2022/06/28 19:10:11;;;;;;;1.67;0.60;;;;;;;23.69;57.26;100670.44;8278377;28;20129;-63
2022/06/28 19:14:13;;;;;;;1.60;0.77;;;;;;;23.61;57.81;100671.53;8274422;28;20125;-63